sensor_id;sensor_type;location;lat;lon;timestamp;temperature;humidity
25192;DHT22;13143;50.924;5.320;2023-02-02T00:02:04;9.40;99.90
25192;DHT22;13143;50.924;5.320;2023-02-02T00:04:33;9.40;99.90
25192;DHT22;13143;50.924;5.320;2023-02-02T00:06:59;9.40;99.90
25192;DHT22;13143;50.924;5.320;2023-02-02T00:09:27;9.40;99.90
25192;DHT22;13143;50.924;5.320;2023-02-02T00:11:54;9.40;99.90
25192;DHT22;13143;50.924;5.320;2023-02-02T00:14:20;9.40;99.90
25192;DHT22;13143;50.924;5.320;2023-02-02T00:16:49;9.40;99.90
25192;DHT22;13143;50.924;5.320;2023-02-02T00:19:18;9.40;99.90
25192;DHT22;13143;50.924;5.320;2023-02-02T00:21:44;9.40;99.90
25192;DHT22;13143;50.924;5.320;2023-02-02T00:24:11;9.40;99.90
25192;DHT22;13143;50.924;5.320;2023-02-02T00:26:39;9.40;99.90
25192;DHT22;13143;50.924;5.320;2023-02-02T00:29:06;9.40;99.90
25192;DHT22;13143;50.924;5.320;2023-02-02T00:31:33;9.40;99.90
25192;DHT22;13143;50.924;5.320;2023-02-02T00:33:59;9.40;99.90
25192;DHT22;13143;50.924;5.320;2023-02-02T00:36:25;9.40;99.90
25192;DHT22;13143;50.924;5.320;2023-02-02T00:38:51;9.40;99.90
25192;DHT22;13143;50.924;5.320;2023-02-02T00:41:18;9.40;99.90
25192;DHT22;13143;50.924;5.320;2023-02-02T00:43:44;9.40;99.90
25192;DHT22;13143;50.924;5.320;2023-02-02T00:46:17;9.40;99.90
25192;DHT22;13143;50.924;5.320;2023-02-02T00:48:43;9.40;99.90
25192;DHT22;13143;50.924;5.320;2023-02-02T00:51:08;9.40;99.90
25192;DHT22;13143;50.924;5.320;2023-02-02T00:53:34;9.40;99.90
25192;DHT22;13143;50.924;5.320;2023-02-02T00:56:00;9.40;99.90
25192;DHT22;13143;50.924;5.320;2023-02-02T00:58:25;9.40;99.90
25192;DHT22;13143;50.924;5.320;2023-02-02T01:00:51;9.40;99.90
25192;DHT22;13143;50.924;5.320;2023-02-02T01:03:17;9.40;99.90
25192;DHT22;13143;50.924;5.320;2023-02-02T01:05:42;9.40;99.90
25192;DHT22;13143;50.924;5.320;2023-02-02T01:08:08;9.40;99.90
25192;DHT22;13143;50.924;5.320;2023-02-02T01:10:34;9.40;99.90
25192;DHT22;13143;50.924;5.320;2023-02-02T01:13:00;9.40;99.90
25192;DHT22;13143;50.924;5.320;2023-02-02T01:15:26;9.40;99.90
25192;DHT22;13143;50.924;5.320;2023-02-02T01:17:51;9.40;99.90
25192;DHT22;13143;50.924;5.320;2023-02-02T01:20:18;9.40;99.90
25192;DHT22;13143;50.924;5.320;2023-02-02T01:22:45;9.40;99.90
25192;DHT22;13143;50.924;5.320;2023-02-02T01:25:10;9.40;99.90
25192;DHT22;13143;50.924;5.320;2023-02-02T01:27:36;9.40;99.90
25192;DHT22;13143;50.924;5.320;2023-02-02T01:30:02;9.40;99.90
25192;DHT22;13143;50.924;5.320;2023-02-02T01:32:28;9.40;99.90
25192;DHT22;13143;50.924;5.320;2023-02-02T01:34:53;9.40;99.90
25192;DHT22;13143;50.924;5.320;2023-02-02T01:37:19;9.40;99.90
25192;DHT22;13143;50.924;5.320;2023-02-02T01:39:46;9.40;99.90
25192;DHT22;13143;50.924;5.320;2023-02-02T01:42:14;9.40;99.90
25192;DHT22;13143;50.924;5.320;2023-02-02T01:47:28;9.40;99.90
25192;DHT22;13143;50.924;5.320;2023-02-02T01:49:55;9.40;99.90
25192;DHT22;13143;50.924;5.320;2023-02-02T01:52:23;9.40;99.90
25192;DHT22;13143;50.924;5.320;2023-02-02T01:54:53;9.40;99.90
25192;DHT22;13143;50.924;5.320;2023-02-02T01:57:27;9.40;99.90
25192;DHT22;13143;50.924;5.320;2023-02-02T01:59:55;9.40;99.90
25192;DHT22;13143;50.924;5.320;2023-02-02T02:02:24;9.40;99.90
25192;DHT22;13143;50.924;5.320;2023-02-02T02:04:50;9.40;99.90
25192;DHT22;13143;50.924;5.320;2023-02-02T02:07:16;9.40;99.90
25192;DHT22;13143;50.924;5.320;2023-02-02T02:09:41;9.40;99.90
25192;DHT22;13143;50.924;5.320;2023-02-02T02:12:11;9.40;99.90
25192;DHT22;13143;50.924;5.320;2023-02-02T02:14:46;9.40;99.90
25192;DHT22;13143;50.924;5.320;2023-02-02T02:17:35;9.40;99.90
25192;DHT22;13143;50.924;5.320;2023-02-02T02:40:07;9.40;99.90
25192;DHT22;13143;50.924;5.320;2023-02-02T02:42:40;9.40;99.90
25192;DHT22;13143;50.924;5.320;2023-02-02T02:45:08;9.40;99.90
25192;DHT22;13143;50.924;5.320;2023-02-02T02:47:35;9.40;99.90
25192;DHT22;13143;50.924;5.320;2023-02-02T02:50:03;9.40;99.90
25192;DHT22;13143;50.924;5.320;2023-02-02T02:52:29;9.40;99.90
25192;DHT22;13143;50.924;5.320;2023-02-02T02:54:56;9.40;99.90
25192;DHT22;13143;50.924;5.320;2023-02-02T03:08:23;9.40;99.90
25192;DHT22;13143;50.924;5.320;2023-02-02T03:10:49;9.40;99.90
25192;DHT22;13143;50.924;5.320;2023-02-02T03:13:16;9.50;99.90
25192;DHT22;13143;50.924;5.320;2023-02-02T03:15:43;9.50;99.90
25192;DHT22;13143;50.924;5.320;2023-02-02T03:18:14;9.50;99.90
25192;DHT22;13143;50.924;5.320;2023-02-02T03:20:42;9.40;99.90
25192;DHT22;13143;50.924;5.320;2023-02-02T03:23:09;9.50;99.90
25192;DHT22;13143;50.924;5.320;2023-02-02T03:25:35;9.40;99.90
25192;DHT22;13143;50.924;5.320;2023-02-02T03:28:01;9.40;99.90
25192;DHT22;13143;50.924;5.320;2023-02-02T03:30:27;9.50;99.90
25192;DHT22;13143;50.924;5.320;2023-02-02T03:32:53;9.50;99.90
25192;DHT22;13143;50.924;5.320;2023-02-02T03:35:19;9.50;99.90
25192;DHT22;13143;50.924;5.320;2023-02-02T03:37:47;9.40;99.90
25192;DHT22;13143;50.924;5.320;2023-02-02T03:40:13;9.50;99.90
25192;DHT22;13143;50.924;5.320;2023-02-02T03:42:39;9.50;99.90
25192;DHT22;13143;50.924;5.320;2023-02-02T03:45:05;9.50;99.90
25192;DHT22;13143;50.924;5.320;2023-02-02T03:47:31;9.50;99.90
25192;DHT22;13143;50.924;5.320;2023-02-02T03:49:57;9.40;99.90
25192;DHT22;13143;50.924;5.320;2023-02-02T03:52:23;9.40;99.90
25192;DHT22;13143;50.924;5.320;2023-02-02T03:54:49;9.50;99.90
25192;DHT22;13143;50.924;5.320;2023-02-02T03:57:15;9.50;99.90
25192;DHT22;13143;50.924;5.320;2023-02-02T03:59:41;9.40;99.90
25192;DHT22;13143;50.924;5.320;2023-02-02T04:02:06;9.50;99.90
25192;DHT22;13143;50.924;5.320;2023-02-02T04:04:32;9.50;99.90
25192;DHT22;13143;50.924;5.320;2023-02-02T04:06:58;9.40;99.90
25192;DHT22;13143;50.924;5.320;2023-02-02T04:09:24;9.50;99.90
25192;DHT22;13143;50.924;5.320;2023-02-02T04:11:50;9.40;99.90
25192;DHT22;13143;50.924;5.320;2023-02-02T04:14:16;9.50;99.90
25192;DHT22;13143;50.924;5.320;2023-02-02T04:16:41;9.50;99.90
25192;DHT22;13143;50.924;5.320;2023-02-02T04:19:07;9.50;99.90
25192;DHT22;13143;50.924;5.320;2023-02-02T04:21:33;9.50;99.90
25192;DHT22;13143;50.924;5.320;2023-02-02T04:23:58;9.50;99.90
25192;DHT22;13143;50.924;5.320;2023-02-02T04:26:25;9.50;99.90
25192;DHT22;13143;50.924;5.320;2023-02-02T04:28:51;9.50;99.90
25192;DHT22;13143;50.924;5.320;2023-02-02T04:31:17;9.50;99.90
25192;DHT22;13143;50.924;5.320;2023-02-02T04:33:43;9.50;99.90
25192;DHT22;13143;50.924;5.320;2023-02-02T04:36:09;9.50;99.90
25192;DHT22;13143;50.924;5.320;2023-02-02T04:38:35;9.50;99.90
25192;DHT22;13143;50.924;5.320;2023-02-02T04:41:06;9.50;99.90
25192;DHT22;13143;50.924;5.320;2023-02-02T04:43:36;9.40;99.90
25192;DHT22;13143;50.924;5.320;2023-02-02T04:46:02;9.50;99.90
25192;DHT22;13143;50.924;5.320;2023-02-02T04:48:28;9.40;99.90
25192;DHT22;13143;50.924;5.320;2023-02-02T04:51:01;9.50;99.90
25192;DHT22;13143;50.924;5.320;2023-02-02T04:53:27;9.40;99.90
25192;DHT22;13143;50.924;5.320;2023-02-02T04:55:53;9.50;99.90
25192;DHT22;13143;50.924;5.320;2023-02-02T04:58:19;9.40;99.90
25192;DHT22;13143;50.924;5.320;2023-02-02T05:00:45;9.40;99.90
25192;DHT22;13143;50.924;5.320;2023-02-02T05:03:10;9.40;99.90
25192;DHT22;13143;50.924;5.320;2023-02-02T05:05:36;9.40;99.90
25192;DHT22;13143;50.924;5.320;2023-02-02T05:08:01;9.40;99.90
25192;DHT22;13143;50.924;5.320;2023-02-02T05:10:27;9.40;99.90
25192;DHT22;13143;50.924;5.320;2023-02-02T05:12:53;9.40;99.90
25192;DHT22;13143;50.924;5.320;2023-02-02T05:15:19;9.40;99.90
25192;DHT22;13143;50.924;5.320;2023-02-02T05:17:48;9.40;99.90
25192;DHT22;13143;50.924;5.320;2023-02-02T05:20:14;9.40;99.90
25192;DHT22;13143;50.924;5.320;2023-02-02T05:22:41;9.40;99.90
25192;DHT22;13143;50.924;5.320;2023-02-02T05:25:07;9.40;99.90
25192;DHT22;13143;50.924;5.320;2023-02-02T05:27:34;9.40;99.90
25192;DHT22;13143;50.924;5.320;2023-02-02T05:29:59;9.40;99.90
25192;DHT22;13143;50.924;5.320;2023-02-02T05:32:25;9.40;99.90
25192;DHT22;13143;50.924;5.320;2023-02-02T05:34:53;9.40;99.90
25192;DHT22;13143;50.924;5.320;2023-02-02T05:37:18;9.40;99.90
25192;DHT22;13143;50.924;5.320;2023-02-02T05:39:44;9.40;99.90
25192;DHT22;13143;50.924;5.320;2023-02-02T05:42:09;9.40;99.90
25192;DHT22;13143;50.924;5.320;2023-02-02T05:44:35;9.40;99.90
25192;DHT22;13143;50.924;5.320;2023-02-02T05:47:01;9.40;99.90
25192;DHT22;13143;50.924;5.320;2023-02-02T05:49:26;9.40;99.90
25192;DHT22;13143;50.924;5.320;2023-02-02T05:51:55;9.40;99.90
25192;DHT22;13143;50.924;5.320;2023-02-02T05:54:21;9.40;99.90
25192;DHT22;13143;50.924;5.320;2023-02-02T05:56:48;9.40;99.90
25192;DHT22;13143;50.924;5.320;2023-02-02T05:59:14;9.40;99.90
25192;DHT22;13143;50.924;5.320;2023-02-02T06:01:42;9.40;99.90
25192;DHT22;13143;50.924;5.320;2023-02-02T06:04:08;9.40;99.90
25192;DHT22;13143;50.924;5.320;2023-02-02T06:06:33;9.40;99.90
25192;DHT22;13143;50.924;5.320;2023-02-02T06:09:00;9.40;99.90
25192;DHT22;13143;50.924;5.320;2023-02-02T06:11:26;9.40;99.90
25192;DHT22;13143;50.924;5.320;2023-02-02T06:13:51;9.40;99.90
25192;DHT22;13143;50.924;5.320;2023-02-02T06:16:17;9.40;99.90
25192;DHT22;13143;50.924;5.320;2023-02-02T06:18:43;9.40;99.90
25192;DHT22;13143;50.924;5.320;2023-02-02T06:21:10;9.40;99.90
25192;DHT22;13143;50.924;5.320;2023-02-02T06:23:36;9.40;99.90
25192;DHT22;13143;50.924;5.320;2023-02-02T06:26:02;9.40;99.90
25192;DHT22;13143;50.924;5.320;2023-02-02T06:28:30;9.40;99.90
25192;DHT22;13143;50.924;5.320;2023-02-02T06:31:02;9.40;99.90
25192;DHT22;13143;50.924;5.320;2023-02-02T06:33:28;9.40;99.90
25192;DHT22;13143;50.924;5.320;2023-02-02T06:35:58;9.40;99.90
25192;DHT22;13143;50.924;5.320;2023-02-02T06:38:24;9.40;99.90
25192;DHT22;13143;50.924;5.320;2023-02-02T06:40:50;9.40;99.90
25192;DHT22;13143;50.924;5.320;2023-02-02T06:43:15;9.40;99.90
25192;DHT22;13143;50.924;5.320;2023-02-02T06:45:41;9.40;99.90
25192;DHT22;13143;50.924;5.320;2023-02-02T06:48:07;9.40;99.90
25192;DHT22;13143;50.924;5.320;2023-02-02T06:50:36;9.40;99.90
25192;DHT22;13143;50.924;5.320;2023-02-02T06:53:03;9.40;99.90
25192;DHT22;13143;50.924;5.320;2023-02-02T06:55:29;9.40;99.90
25192;DHT22;13143;50.924;5.320;2023-02-02T06:57:58;9.40;99.90
25192;DHT22;13143;50.924;5.320;2023-02-02T07:00:26;9.40;99.90
25192;DHT22;13143;50.924;5.320;2023-02-02T07:02:52;9.40;99.90
25192;DHT22;13143;50.924;5.320;2023-02-02T07:05:17;9.40;99.90
25192;DHT22;13143;50.924;5.320;2023-02-02T07:07:44;9.40;99.90
25192;DHT22;13143;50.924;5.320;2023-02-02T07:10:10;9.40;99.90
25192;DHT22;13143;50.924;5.320;2023-02-02T07:12:36;9.40;99.90
25192;DHT22;13143;50.924;5.320;2023-02-02T07:15:02;9.40;99.90
25192;DHT22;13143;50.924;5.320;2023-02-02T07:17:28;9.40;99.90
25192;DHT22;13143;50.924;5.320;2023-02-02T07:19:54;9.40;99.90
25192;DHT22;13143;50.924;5.320;2023-02-02T07:22:20;9.40;99.90
25192;DHT22;13143;50.924;5.320;2023-02-02T07:24:45;9.40;99.90
25192;DHT22;13143;50.924;5.320;2023-02-02T07:27:11;9.40;99.90
25192;DHT22;13143;50.924;5.320;2023-02-02T07:29:37;9.40;99.90
25192;DHT22;13143;50.924;5.320;2023-02-02T07:32:03;9.40;99.90
25192;DHT22;13143;50.924;5.320;2023-02-02T07:34:29;9.40;99.90
25192;DHT22;13143;50.924;5.320;2023-02-02T07:36:55;9.40;99.90
25192;DHT22;13143;50.924;5.320;2023-02-02T07:39:21;9.40;99.90
25192;DHT22;13143;50.924;5.320;2023-02-02T07:41:47;9.30;99.90
25192;DHT22;13143;50.924;5.320;2023-02-02T07:44:13;9.40;99.90
25192;DHT22;13143;50.924;5.320;2023-02-02T07:46:44;9.30;99.90
25192;DHT22;13143;50.924;5.320;2023-02-02T07:49:15;9.40;99.90
25192;DHT22;13143;50.924;5.320;2023-02-02T07:51:41;9.40;99.90
25192;DHT22;13143;50.924;5.320;2023-02-02T07:54:08;9.40;99.90
25192;DHT22;13143;50.924;5.320;2023-02-02T07:56:34;9.30;99.90
25192;DHT22;13143;50.924;5.320;2023-02-02T07:59:00;9.30;99.90
25192;DHT22;13143;50.924;5.320;2023-02-02T08:01:26;9.30;99.90
25192;DHT22;13143;50.924;5.320;2023-02-02T08:03:54;9.30;99.90
25192;DHT22;13143;50.924;5.320;2023-02-02T08:06:29;9.30;99.90
25192;DHT22;13143;50.924;5.320;2023-02-02T08:08:57;9.30;99.90
25192;DHT22;13143;50.924;5.320;2023-02-02T08:11:24;9.30;99.90
25192;DHT22;13143;50.924;5.320;2023-02-02T08:13:55;9.30;99.90
25192;DHT22;13143;50.924;5.320;2023-02-02T08:16:21;9.30;99.90
25192;DHT22;13143;50.924;5.320;2023-02-02T08:18:48;9.30;99.90
25192;DHT22;13143;50.924;5.320;2023-02-02T08:21:15;9.30;99.90
25192;DHT22;13143;50.924;5.320;2023-02-02T08:23:41;9.30;99.90
25192;DHT22;13143;50.924;5.320;2023-02-02T08:28:38;9.30;99.90
25192;DHT22;13143;50.924;5.320;2023-02-02T08:31:09;9.30;99.90
25192;DHT22;13143;50.924;5.320;2023-02-02T08:33:35;9.30;99.90
25192;DHT22;13143;50.924;5.320;2023-02-02T08:36:02;9.30;99.90
25192;DHT22;13143;50.924;5.320;2023-02-02T08:38:28;9.30;99.90
25192;DHT22;13143;50.924;5.320;2023-02-02T08:40:53;9.30;99.90
25192;DHT22;13143;50.924;5.320;2023-02-02T08:43:19;9.30;99.90
25192;DHT22;13143;50.924;5.320;2023-02-02T08:45:45;9.30;99.90
25192;DHT22;13143;50.924;5.320;2023-02-02T08:48:12;9.30;99.90
25192;DHT22;13143;50.924;5.320;2023-02-02T08:50:39;9.30;99.90
25192;DHT22;13143;50.924;5.320;2023-02-02T08:53:04;9.30;99.90
25192;DHT22;13143;50.924;5.320;2023-02-02T08:55:30;9.20;99.90
25192;DHT22;13143;50.924;5.320;2023-02-02T08:57:55;9.30;99.90
25192;DHT22;13143;50.924;5.320;2023-02-02T09:00:21;9.30;99.90
25192;DHT22;13143;50.924;5.320;2023-02-02T09:02:50;9.30;99.90
25192;DHT22;13143;50.924;5.320;2023-02-02T09:05:16;9.30;99.90
25192;DHT22;13143;50.924;5.320;2023-02-02T09:07:41;9.20;99.90
25192;DHT22;13143;50.924;5.320;2023-02-02T09:10:07;9.30;99.90
25192;DHT22;13143;50.924;5.320;2023-02-02T09:12:33;9.20;99.90
25192;DHT22;13143;50.924;5.320;2023-02-02T09:14:59;9.30;99.90
25192;DHT22;13143;50.924;5.320;2023-02-02T09:17:24;9.20;99.90
25192;DHT22;13143;50.924;5.320;2023-02-02T09:19:50;9.30;99.90
25192;DHT22;13143;50.924;5.320;2023-02-02T09:22:16;9.30;99.90
25192;DHT22;13143;50.924;5.320;2023-02-02T09:24:41;9.30;99.90
25192;DHT22;13143;50.924;5.320;2023-02-02T09:27:07;9.30;99.90
25192;DHT22;13143;50.924;5.320;2023-02-02T09:29:33;9.30;99.90
25192;DHT22;13143;50.924;5.320;2023-02-02T09:31:58;9.30;99.90
25192;DHT22;13143;50.924;5.320;2023-02-02T09:34:24;9.30;99.90
25192;DHT22;13143;50.924;5.320;2023-02-02T09:36:50;9.20;99.90
25192;DHT22;13143;50.924;5.320;2023-02-02T09:39:16;9.30;99.90
25192;DHT22;13143;50.924;5.320;2023-02-02T09:44:56;9.30;99.90
25192;DHT22;13143;50.924;5.320;2023-02-02T09:47:35;9.30;99.90
25192;DHT22;13143;50.924;5.320;2023-02-02T09:55:38;9.30;99.90
25192;DHT22;13143;50.924;5.320;2023-02-02T09:58:27;9.30;99.90
25192;DHT22;13143;50.924;5.320;2023-02-02T10:01:19;9.30;99.90
25192;DHT22;13143;50.924;5.320;2023-02-02T10:04:01;9.30;99.90
25192;DHT22;13143;50.924;5.320;2023-02-02T10:06:41;9.30;99.90
25192;DHT22;13143;50.924;5.320;2023-02-02T10:14:38;9.30;99.90
25192;DHT22;13143;50.924;5.320;2023-02-02T10:20:07;9.40;99.90
25192;DHT22;13143;50.924;5.320;2023-02-02T10:22:38;9.30;99.90
25192;DHT22;13143;50.924;5.320;2023-02-02T10:25:07;9.40;99.90
25192;DHT22;13143;50.924;5.320;2023-02-02T10:27:39;9.40;99.90
25192;DHT22;13143;50.924;5.320;2023-02-02T10:30:16;9.40;99.90
25192;DHT22;13143;50.924;5.320;2023-02-02T10:33:11;9.40;99.90
25192;DHT22;13143;50.924;5.320;2023-02-02T10:35:45;9.40;99.90
25192;DHT22;13143;50.924;5.320;2023-02-02T10:51:56;9.50;99.90
25192;DHT22;13143;50.924;5.320;2023-02-02T10:57:11;9.50;99.90
25192;DHT22;13143;50.924;5.320;2023-02-02T10:59:50;9.50;99.90
25192;DHT22;13143;50.924;5.320;2023-02-02T11:02:20;9.60;99.90
25192;DHT22;13143;50.924;5.320;2023-02-02T11:04:46;9.60;99.90
25192;DHT22;13143;50.924;5.320;2023-02-02T11:07:30;9.60;99.90
25192;DHT22;13143;50.924;5.320;2023-02-02T11:09:55;9.60;99.90
25192;DHT22;13143;50.924;5.320;2023-02-02T11:15:08;9.60;99.90
25192;DHT22;13143;50.924;5.320;2023-02-02T11:17:47;9.60;99.90
25192;DHT22;13143;50.924;5.320;2023-02-02T11:20:41;9.70;99.90
25192;DHT22;13143;50.924;5.320;2023-02-02T11:23:17;9.70;99.90
25192;DHT22;13143;50.924;5.320;2023-02-02T11:25:43;9.70;99.90
25192;DHT22;13143;50.924;5.320;2023-02-02T11:28:18;9.70;99.90
25192;DHT22;13143;50.924;5.320;2023-02-02T11:30:46;9.70;99.90
25192;DHT22;13143;50.924;5.320;2023-02-02T11:33:30;9.70;99.90
25192;DHT22;13143;50.924;5.320;2023-02-02T11:36:03;9.70;99.90
25192;DHT22;13143;50.924;5.320;2023-02-02T11:38:29;9.70;99.90
25192;DHT22;13143;50.924;5.320;2023-02-02T11:40:58;9.70;99.90
25192;DHT22;13143;50.924;5.320;2023-02-02T11:43:46;9.80;99.90
25192;DHT22;13143;50.924;5.320;2023-02-02T11:46:51;9.80;99.90
25192;DHT22;13143;50.924;5.320;2023-02-02T11:49:15;9.80;99.90
25192;DHT22;13143;50.924;5.320;2023-02-02T11:51:57;9.90;99.90
25192;DHT22;13143;50.924;5.320;2023-02-02T11:54:34;9.80;99.90
25192;DHT22;13143;50.924;5.320;2023-02-02T11:57:04;9.90;99.90
25192;DHT22;13143;50.924;5.320;2023-02-02T11:59:42;9.90;99.90
25192;DHT22;13143;50.924;5.320;2023-02-02T12:04:38;9.90;99.90
25192;DHT22;13143;50.924;5.320;2023-02-02T12:07:17;10.00;99.90
25192;DHT22;13143;50.924;5.320;2023-02-02T12:09:44;10.00;99.90
25192;DHT22;13143;50.924;5.320;2023-02-02T12:12:40;10.00;99.90
25192;DHT22;13143;50.924;5.320;2023-02-02T12:17:45;10.00;99.90
25192;DHT22;13143;50.924;5.320;2023-02-02T12:20:31;10.10;99.90
25192;DHT22;13143;50.924;5.320;2023-02-02T12:44:43;10.20;99.90
25192;DHT22;13143;50.924;5.320;2023-02-02T12:47:23;10.20;99.90
25192;DHT22;13143;50.924;5.320;2023-02-02T13:06:45;10.40;99.90
25192;DHT22;13143;50.924;5.320;2023-02-02T13:09:18;10.40;99.90
25192;DHT22;13143;50.924;5.320;2023-02-02T13:12:01;10.40;99.90
25192;DHT22;13143;50.924;5.320;2023-02-02T13:14:33;10.40;99.90
25192;DHT22;13143;50.924;5.320;2023-02-02T13:17:12;10.50;99.90
25192;DHT22;13143;50.924;5.320;2023-02-02T13:19:42;10.50;99.90
25192;DHT22;13143;50.924;5.320;2023-02-02T13:22:51;10.50;99.90
25192;DHT22;13143;50.924;5.320;2023-02-02T13:25:18;10.50;99.90
25192;DHT22;13143;50.924;5.320;2023-02-02T13:27:46;10.50;99.90
25192;DHT22;13143;50.924;5.320;2023-02-02T13:30:26;10.60;99.90
25192;DHT22;13143;50.924;5.320;2023-02-02T13:33:01;10.50;99.90
25192;DHT22;13143;50.924;5.320;2023-02-02T13:35:51;10.60;99.90
25192;DHT22;13143;50.924;5.320;2023-02-02T13:38:26;10.60;99.90
25192;DHT22;13143;50.924;5.320;2023-02-02T13:40:55;10.60;99.90
25192;DHT22;13143;50.924;5.320;2023-02-02T13:57:25;10.70;99.90
25192;DHT22;13143;50.924;5.320;2023-02-02T14:00:18;10.70;99.90
25192;DHT22;13143;50.924;5.320;2023-02-02T14:03:05;10.70;99.90
25192;DHT22;13143;50.924;5.320;2023-02-02T14:05:39;10.70;99.90
25192;DHT22;13143;50.924;5.320;2023-02-02T14:08:18;10.80;99.90
25192;DHT22;13143;50.924;5.320;2023-02-02T14:10:57;10.80;99.90
25192;DHT22;13143;50.924;5.320;2023-02-02T14:13:28;10.80;99.90
25192;DHT22;13143;50.924;5.320;2023-02-02T14:19:01;10.80;99.90
25192;DHT22;13143;50.924;5.320;2023-02-02T14:24:40;10.90;99.90
25192;DHT22;13143;50.924;5.320;2023-02-02T14:32:30;10.90;99.90
25192;DHT22;13143;50.924;5.320;2023-02-02T14:43:20;10.90;99.90
25192;DHT22;13143;50.924;5.320;2023-02-02T14:46:52;10.90;99.90
25192;DHT22;13143;50.924;5.320;2023-02-02T14:51:21;11.00;99.90
25192;DHT22;13143;50.924;5.320;2023-02-02T14:56:16;11.00;99.90
25192;DHT22;13143;50.924;5.320;2023-02-02T14:58:53;10.90;99.90
25192;DHT22;13143;50.924;5.320;2023-02-02T15:06:36;11.00;99.90
25192;DHT22;13143;50.924;5.320;2023-02-02T15:14:32;11.00;99.90
25192;DHT22;13143;50.924;5.320;2023-02-02T15:25:05;11.00;99.90
25192;DHT22;13143;50.924;5.320;2023-02-02T15:27:36;11.00;99.90
25192;DHT22;13143;50.924;5.320;2023-02-02T15:30:06;11.00;99.90
25192;DHT22;13143;50.924;5.320;2023-02-02T15:32:34;11.00;99.90
25192;DHT22;13143;50.924;5.320;2023-02-02T15:35:04;11.00;99.90
25192;DHT22;13143;50.924;5.320;2023-02-02T15:37:35;11.00;99.90
25192;DHT22;13143;50.924;5.320;2023-02-02T15:40:14;11.00;99.90
25192;DHT22;13143;50.924;5.320;2023-02-02T15:42:45;11.00;99.90
25192;DHT22;13143;50.924;5.320;2023-02-02T15:45:52;11.00;99.90
25192;DHT22;13143;50.924;5.320;2023-02-02T15:48:27;11.00;99.90
25192;DHT22;13143;50.924;5.320;2023-02-02T15:51:04;11.00;99.90
25192;DHT22;13143;50.924;5.320;2023-02-02T15:58:49;11.00;99.90
25192;DHT22;13143;50.924;5.320;2023-02-02T16:01:21;11.00;99.90
25192;DHT22;13143;50.924;5.320;2023-02-02T16:04:21;11.00;99.90
25192;DHT22;13143;50.924;5.320;2023-02-02T16:06:50;11.00;99.90
25192;DHT22;13143;50.924;5.320;2023-02-02T16:09:25;11.00;99.90
25192;DHT22;13143;50.924;5.320;2023-02-02T16:11:52;11.00;99.90
25192;DHT22;13143;50.924;5.320;2023-02-02T16:14:18;11.00;99.90
25192;DHT22;13143;50.924;5.320;2023-02-02T16:16:44;11.00;99.90
25192;DHT22;13143;50.924;5.320;2023-02-02T16:19:21;11.00;99.90
25192;DHT22;13143;50.924;5.320;2023-02-02T16:24:43;11.00;99.90
25192;DHT22;13143;50.924;5.320;2023-02-02T16:27:18;11.00;99.90
25192;DHT22;13143;50.924;5.320;2023-02-02T16:29:44;11.00;99.90
25192;DHT22;13143;50.924;5.320;2023-02-02T16:32:32;11.00;99.90
25192;DHT22;13143;50.924;5.320;2023-02-02T16:34:58;11.00;99.90
25192;DHT22;13143;50.924;5.320;2023-02-02T16:37:31;11.00;99.90
25192;DHT22;13143;50.924;5.320;2023-02-02T16:40:26;11.00;99.90
25192;DHT22;13143;50.924;5.320;2023-02-02T16:45:54;11.00;99.90
25192;DHT22;13143;50.924;5.320;2023-02-02T16:48:33;11.00;99.90
25192;DHT22;13143;50.924;5.320;2023-02-02T16:51:06;11.00;99.90
25192;DHT22;13143;50.924;5.320;2023-02-02T16:53:33;11.00;99.90
25192;DHT22;13143;50.924;5.320;2023-02-02T16:56:02;11.00;99.90
25192;DHT22;13143;50.924;5.320;2023-02-02T16:58:28;11.00;99.90
25192;DHT22;13143;50.924;5.320;2023-02-02T17:01:27;11.00;99.90
25192;DHT22;13143;50.924;5.320;2023-02-02T17:03:50;11.00;99.90
25192;DHT22;13143;50.924;5.320;2023-02-02T17:06:28;11.00;99.90
25192;DHT22;13143;50.924;5.320;2023-02-02T17:08:55;11.00;99.90
25192;DHT22;13143;50.924;5.320;2023-02-02T17:11:27;11.00;99.90
25192;DHT22;13143;50.924;5.320;2023-02-02T17:13:55;11.00;99.90
25192;DHT22;13143;50.924;5.320;2023-02-02T17:16:22;10.90;99.90
25192;DHT22;13143;50.924;5.320;2023-02-02T17:18:49;11.00;99.90
25192;DHT22;13143;50.924;5.320;2023-02-02T17:21:20;11.00;99.90
25192;DHT22;13143;50.924;5.320;2023-02-02T17:23:51;11.00;99.90
25192;DHT22;13143;50.924;5.320;2023-02-02T17:26:20;11.00;99.90
25192;DHT22;13143;50.924;5.320;2023-02-02T17:28:46;11.00;99.90
25192;DHT22;13143;50.924;5.320;2023-02-02T17:31:14;11.00;99.90
25192;DHT22;13143;50.924;5.320;2023-02-02T17:33:41;11.00;99.90
25192;DHT22;13143;50.924;5.320;2023-02-02T17:36:09;11.00;99.90
25192;DHT22;13143;50.924;5.320;2023-02-02T17:38:36;11.00;99.90
25192;DHT22;13143;50.924;5.320;2023-02-02T17:41:03;11.00;99.90
25192;DHT22;13143;50.924;5.320;2023-02-02T17:43:30;10.90;99.90
25192;DHT22;13143;50.924;5.320;2023-02-02T17:45:57;11.00;99.90
25192;DHT22;13143;50.924;5.320;2023-02-02T17:48:23;11.00;99.90
25192;DHT22;13143;50.924;5.320;2023-02-02T17:50:48;10.90;99.90
25192;DHT22;13143;50.924;5.320;2023-02-02T17:53:17;10.90;99.90
25192;DHT22;13143;50.924;5.320;2023-02-02T17:55:44;10.90;99.90
25192;DHT22;13143;50.924;5.320;2023-02-02T17:58:11;10.90;99.90
25192;DHT22;13143;50.924;5.320;2023-02-02T18:00:39;10.90;99.90
25192;DHT22;13143;50.924;5.320;2023-02-02T18:03:22;10.90;99.90
25192;DHT22;13143;50.924;5.320;2023-02-02T18:05:49;10.90;99.90
25192;DHT22;13143;50.924;5.320;2023-02-02T18:08:15;10.90;99.90
25192;DHT22;13143;50.924;5.320;2023-02-02T18:10:42;10.90;99.90
25192;DHT22;13143;50.924;5.320;2023-02-02T18:13:14;10.90;99.90
25192;DHT22;13143;50.924;5.320;2023-02-02T18:15:41;10.90;99.90
25192;DHT22;13143;50.924;5.320;2023-02-02T18:18:06;10.90;99.90
25192;DHT22;13143;50.924;5.320;2023-02-02T18:20:32;10.90;99.90
25192;DHT22;13143;50.924;5.320;2023-02-02T18:23:00;10.90;99.90
25192;DHT22;13143;50.924;5.320;2023-02-02T18:25:26;10.90;99.90
25192;DHT22;13143;50.924;5.320;2023-02-02T18:27:51;10.80;99.90
25192;DHT22;13143;50.924;5.320;2023-02-02T18:30:17;10.90;99.90
25192;DHT22;13143;50.924;5.320;2023-02-02T18:32:43;10.80;99.90
25192;DHT22;13143;50.924;5.320;2023-02-02T18:35:10;10.90;99.90
25192;DHT22;13143;50.924;5.320;2023-02-02T18:37:37;10.90;99.90
25192;DHT22;13143;50.924;5.320;2023-02-02T18:40:03;10.80;99.90
25192;DHT22;13143;50.924;5.320;2023-02-02T18:42:29;10.90;99.90
25192;DHT22;13143;50.924;5.320;2023-02-02T18:44:58;10.80;99.90
25192;DHT22;13143;50.924;5.320;2023-02-02T18:47:24;10.80;99.90
25192;DHT22;13143;50.924;5.320;2023-02-02T18:49:49;10.80;99.90
25192;DHT22;13143;50.924;5.320;2023-02-02T18:52:15;10.80;99.90
25192;DHT22;13143;50.924;5.320;2023-02-02T18:54:40;10.80;99.90
25192;DHT22;13143;50.924;5.320;2023-02-02T18:57:06;10.80;99.90
25192;DHT22;13143;50.924;5.320;2023-02-02T18:59:32;10.80;99.90
25192;DHT22;13143;50.924;5.320;2023-02-02T19:02:00;10.80;99.90